createdAt,value
2023-03-27T00:02:10.177Z,85.47
2023-03-27T00:04:43.942Z,85.72
2023-03-27T00:07:19.282Z,84.79
2023-03-27T00:09:50.541Z,84.99
2023-03-27T00:12:34.001Z,85.29
2023-03-27T00:15:19.344Z,84.75
2023-03-27T00:18:00.179Z,83.42
2023-03-27T00:20:41.655Z,82.82
2023-03-27T00:23:26.953Z,83.29
2023-03-27T00:25:59.118Z,81.04
2023-03-27T00:31:33.273Z,80.13
2023-03-27T00:34:14.009Z,79.58
2023-03-27T00:37:02.556Z,78.36
2023-03-27T00:39:52.133Z,78.37
2023-03-27T00:42:28.839Z,78.19
2023-03-27T00:45:00.032Z,77.43
2023-03-27T00:47:40.702Z,76.42
2023-03-27T00:50:19.794Z,75.98
2023-03-27T00:53:26.630Z,76.35
2023-03-27T00:56:03.650Z,76.32
2023-03-27T00:58:42.262Z,76.77
2023-03-27T01:01:19.293Z,75.83
2023-03-27T01:03:54.533Z,76.42
2023-03-27T01:06:23.677Z,76.73
2023-03-27T01:09:02.706Z,77.16
2023-03-27T01:11:51.703Z,75.37
2023-03-27T01:14:40.831Z,75.17
2023-03-27T01:17:36.172Z,74.98
2023-03-27T01:20:52.544Z,75.16
2023-03-27T01:24:22.227Z,75.47
2023-03-27T01:27:06.918Z,75.44
2023-03-27T01:30:18.818Z,76.13
2023-03-27T01:34:03.484Z,76.03
2023-03-27T01:37:25.935Z,77.46
2023-03-27T01:40:11.939Z,76.51
2023-03-27T01:42:51.876Z,76.78
2023-03-27T01:45:37.872Z,76.23
2023-03-27T01:48:18.634Z,75.95
2023-03-27T01:50:56.693Z,76.92
2023-03-27T01:53:35.878Z,76.58
2023-03-27T01:56:15.311Z,77.61
2023-03-27T01:58:57.679Z,77.32
2023-03-27T02:01:38.536Z,77.60
2023-03-27T02:04:17.722Z,77.84
2023-03-27T02:06:59.412Z,77.12
2023-03-27T02:09:53.699Z,77.67
2023-03-27T02:12:38.082Z,76.48
2023-03-27T02:15:24.810Z,76.81
2023-03-27T02:18:12.085Z,76.29
2023-03-27T02:20:44.250Z,76.98
2023-03-27T02:23:16.831Z,77.37
2023-03-27T02:25:55.260Z,77.43
2023-03-27T02:29:14.716Z,76.73
2023-03-27T02:32:09.669Z,77.21
2023-03-27T02:35:19.264Z,75.78
2023-03-27T02:38:05.451Z,75.40
2023-03-27T02:41:10.602Z,74.44
2023-03-27T02:44:19.943Z,74.47
2023-03-27T02:47:12.688Z,75.32
2023-03-27T02:49:56.224Z,74.21
2023-03-27T02:52:38.537Z,69.94
2023-03-27T02:55:17.867Z,70.74
2023-03-27T02:57:56.393Z,70.55
2023-03-27T03:00:41.152Z,71.25
2023-03-27T03:03:39.652Z,72.17
2023-03-27T03:09:47.455Z,73.85
2023-03-27T03:12:18.702Z,74.29
2023-03-27T03:14:49.951Z,74.56
2023-03-27T03:17:24.493Z,73.98
2023-03-27T03:19:58.145Z,74.32
2023-03-27T03:22:36.994Z,74.26
2023-03-27T03:25:23.088Z,74.98
2023-03-27T03:27:55.977Z,74.41
2023-03-27T03:30:27.935Z,74.38
2023-03-27T03:33:14.032Z,74.42
2023-03-27T03:35:54.504Z,73.26
2023-03-27T03:38:43.270Z,73.53
2023-03-27T03:41:25.076Z,74.50
2023-03-27T03:44:12.349Z,73.56
2023-03-27T03:47:04.593Z,73.93
2023-03-27T03:50:12.219Z,73.67
2023-03-27T03:52:48.151Z,74.35
2023-03-27T03:55:25.836Z,75.34
2023-03-27T03:58:21.877Z,76.17
2023-03-27T04:01:10.320Z,76.21
2023-03-27T04:03:45.971Z,76.94
2023-03-27T04:06:20.438Z,76.60
2023-03-27T04:08:55.630Z,74.01
2023-03-27T04:11:56.073Z,72.76
2023-03-27T04:14:42.472Z,73.06
2023-03-27T04:17:36.721Z,74.00
2023-03-27T04:20:18.544Z,72.15
2023-03-27T04:22:57.056Z,74.32
2023-03-27T04:25:28.301Z,69.40
2023-03-27T04:28:30.970Z,69.65
2023-03-27T04:31:11.244Z,69.66
2023-03-27T04:34:14.020Z,68.50
2023-03-27T04:36:49.168Z,69.52
2023-03-27T04:39:43.365Z,69.64
2023-03-27T04:42:15.519Z,70.82
2023-03-27T04:45:28.723Z,71.30
2023-03-27T04:48:22.732Z,71.91
2023-03-27T04:51:11.303Z,72.36
2023-03-27T04:54:05.056Z,72.93
2023-03-27T04:56:50.173Z,72.18
2023-03-27T04:59:31.380Z,71.56
2023-03-27T05:02:29.104Z,71.82
2023-03-27T05:05:09.938Z,69.79
2023-03-27T05:07:45.904Z,70.14
2023-03-27T05:10:21.801Z,67.69
2023-03-27T05:13:01.565Z,63.75
2023-03-27T05:15:46.668Z,63.63
2023-03-27T05:18:22.122Z,67.49
2023-03-27T05:21:08.514Z,67.76
2023-03-27T05:23:50.057Z,69.80
2023-03-27T05:26:29.272Z,68.92
2023-03-27T05:29:03.635Z,70.04
2023-03-27T05:31:39.196Z,77.43
2023-03-27T05:34:30.825Z,79.26
2023-03-27T05:37:06.369Z,73.41
2023-03-27T05:39:50.210Z,71.42
2023-03-27T05:42:27.090Z,72.75
2023-03-27T05:45:18.808Z,70.07
2023-03-27T05:48:02.200Z,67.70
2023-03-27T05:50:58.968Z,67.96
2023-03-27T05:53:47.129Z,67.21
2023-03-27T05:56:24.111Z,70.66
2023-03-27T05:59:06.974Z,68.35
2023-03-27T06:01:43.998Z,67.60
2023-03-27T06:04:22.773Z,67.54
2023-03-27T06:07:09.338Z,67.89
2023-03-27T06:10:28.492Z,68.34
2023-03-27T06:13:42.864Z,68.37
2023-03-27T06:16:42.172Z,67.77
2023-03-27T06:19:29.801Z,67.60
2023-03-27T06:21:57.755Z,68.02
2023-03-27T06:24:42.474Z,67.16
2023-03-27T06:27:48.170Z,67.14
2023-03-27T06:30:30.025Z,67.06
2023-03-27T06:33:21.905Z,67.04
2023-03-27T06:36:09.849Z,65.94
2023-03-27T06:38:57.387Z,66.00
2023-03-27T06:41:28.721Z,63.33
2023-03-27T06:44:34.169Z,60.15
2023-03-27T06:47:44.448Z,56.98
2023-03-27T06:50:30.947Z,56.13
2023-03-27T06:53:19.707Z,51.87
2023-03-27T06:56:03.157Z,51.90
2023-03-27T06:59:11.628Z,47.30
2023-03-27T07:02:03.930Z,47.29
2023-03-27T07:05:16.769Z,45.39
2023-03-27T07:07:49.062Z,44.36
2023-03-27T07:10:43.456Z,43.09
2023-03-27T07:13:18.097Z,40.27
2023-03-27T07:16:13.112Z,40.82
2023-03-27T07:18:49.247Z,39.92
2023-03-27T07:21:17.725Z,37.80
2023-03-27T07:24:05.967Z,37.95
2023-03-27T07:26:46.427Z,41.24
2023-03-27T07:29:29.046Z,42.60
2023-03-27T07:32:08.609Z,42.73
2023-03-27T07:34:55.843Z,42.64
2023-03-27T07:37:39.807Z,44.24
2023-03-27T07:40:48.572Z,42.97
2023-03-27T07:43:49.290Z,43.49
2023-03-27T07:46:21.504Z,42.08
2023-03-27T07:49:01.997Z,40.45
2023-03-27T07:51:43.782Z,38.10
2023-03-27T07:54:24.810Z,37.73
2023-03-27T07:56:56.045Z,37.31
2023-03-27T07:59:38.393Z,37.67
2023-03-27T08:02:30.616Z,35.82
2023-03-27T08:05:19.872Z,34.32
2023-03-27T08:08:07.805Z,35.91
2023-03-27T08:11:19.493Z,37.35
2023-03-27T08:14:19.519Z,36.41
2023-03-27T08:17:12.330Z,34.51
2023-03-27T08:19:59.528Z,33.01
2023-03-27T08:22:28.761Z,32.62
2023-03-27T08:25:24.480Z,31.47
2023-03-27T08:28:05.341Z,32.38
2023-03-27T08:31:09.003Z,32.52
2023-03-27T08:33:50.133Z,33.76
2023-03-27T08:36:34.103Z,32.20
2023-03-27T08:39:31.137Z,32.16
2023-03-27T08:42:31.888Z,34.87
2023-03-27T08:45:22.859Z,32.81
2023-03-27T08:48:21.885Z,31.39
2023-03-27T08:51:08.501Z,31.10
2023-03-27T08:53:59.481Z,30.22
2023-03-27T08:56:31.063Z,29.84
2023-03-27T08:59:25.758Z,29.83
2023-03-27T09:03:03.428Z,30.42
2023-03-27T09:05:56.437Z,32.68
2023-03-27T09:09:02.971Z,31.90
2023-03-27T09:11:57.292Z,34.09
2023-03-27T09:14:53.036Z,35.13
2023-03-27T09:17:34.724Z,36.06
2023-03-27T09:20:30.518Z,35.63
2023-03-27T09:23:21.034Z,34.67
2023-03-27T09:26:29.520Z,35.46
2023-03-27T09:29:40.505Z,36.27
2023-03-27T09:32:47.145Z,36.12
2023-03-27T09:35:27.509Z,36.73
2023-03-27T09:38:23.684Z,37.64
2023-03-27T09:41:16.566Z,35.94
2023-03-27T09:44:11.327Z,34.33
2023-03-27T09:46:59.308Z,35.95
2023-03-27T09:49:28.876Z,35.40
2023-03-27T09:52:07.989Z,33.17
2023-03-27T09:54:59.458Z,33.21
2023-03-27T09:57:44.006Z,34.79
2023-03-27T10:00:31.719Z,35.91
2023-03-27T10:03:16.751Z,36.78
2023-03-27T10:06:09.914Z,36.31
2023-03-27T10:08:59.371Z,34.77
2023-03-27T10:12:23.610Z,33.04
2023-03-27T10:14:56.611Z,32.40
2023-03-27T10:17:42.548Z,32.44
2023-03-27T10:20:27.462Z,32.38
2023-03-27T10:23:10.244Z,33.56
2023-03-27T10:25:55.909Z,33.33
2023-03-27T10:28:43.541Z,31.09
2023-03-27T10:31:36.859Z,29.69
2023-03-27T10:35:04.414Z,28.29
2023-03-27T10:37:51.054Z,29.43
2023-03-27T10:40:57.582Z,28.99
2023-03-27T10:43:49.967Z,27.98
2023-03-27T10:46:36.898Z,29.52
2023-03-27T10:49:36.974Z,33.04
2023-03-27T10:52:38.431Z,38.05
2023-03-27T10:55:48.145Z,37.56
2023-03-27T10:58:31.344Z,35.07
2023-03-27T11:01:19.138Z,33.29
2023-03-27T11:04:02.193Z,30.93
2023-03-27T11:06:53.165Z,28.98
2023-03-27T11:10:05.989Z,26.82
2023-03-27T11:12:56.577Z,30.42
2023-03-27T11:15:43.689Z,31.78
2023-03-27T11:18:43.339Z,32.02
2023-03-27T11:21:32.326Z,32.30
2023-03-27T11:24:16.418Z,32.19
2023-03-27T11:27:12.264Z,32.21
2023-03-27T11:33:32.505Z,35.35
2023-03-27T11:36:34.929Z,33.33
2023-03-27T11:39:43.446Z,33.84
2023-03-27T11:42:25.328Z,33.78
2023-03-27T11:44:59.442Z,33.49
2023-03-27T11:48:16.613Z,33.12
2023-03-27T11:51:10.922Z,33.11
2023-03-27T11:54:31.702Z,34.70
2023-03-27T11:57:31.863Z,35.00
2023-03-27T12:00:25.103Z,32.75
2023-03-27T12:03:45.764Z,31.50
2023-03-27T12:07:03.981Z,31.92
2023-03-27T12:10:12.370Z,33.13
2023-03-27T12:13:58.232Z,32.35
2023-03-27T12:17:18.250Z,33.23
2023-03-27T12:20:52.889Z,35.04
2023-03-27T12:24:03.046Z,35.40
2023-03-27T12:27:43.548Z,37.75
2023-03-27T12:31:09.028Z,37.84
2023-03-27T12:34:00.393Z,39.05
2023-03-27T12:36:40.348Z,40.77
2023-03-27T12:39:30.105Z,42.35
2023-03-27T12:42:43.954Z,43.69
2023-03-27T12:45:22.392Z,49.02
2023-03-27T12:48:23.814Z,53.42
2023-03-27T12:51:01.246Z,55.13
2023-03-27T12:53:58.849Z,57.53
2023-03-27T12:56:59.773Z,57.54
2023-03-27T12:59:33.702Z,57.86
2023-03-27T13:02:48.024Z,57.32
2023-03-27T13:05:57.614Z,56.81
2023-03-27T13:09:17.312Z,56.50
2023-03-27T13:12:48.569Z,57.19
2023-03-27T13:16:06.442Z,57.95
2023-03-27T13:19:31.016Z,58.28
2023-03-27T13:22:52.593Z,58.44
2023-03-27T13:26:03.019Z,58.14
2023-03-27T13:28:49.612Z,57.61
2023-03-27T13:32:25.617Z,58.63
2023-03-27T13:35:41.420Z,59.55
2023-03-27T13:38:14.117Z,58.80
2023-03-27T13:41:55.304Z,58.56
2023-03-27T13:45:05.256Z,57.79
2023-03-27T13:48:40.413Z,57.91
2023-03-27T13:51:53.956Z,58.70
2023-03-27T13:55:31.529Z,56.89
2023-03-27T13:59:14.966Z,55.38
2023-03-27T14:02:14.481Z,54.13
2023-03-27T14:05:20.353Z,53.92
2023-03-27T14:08:19.331Z,54.26
2023-03-27T14:11:48.108Z,55.35
2023-03-27T14:15:06.970Z,54.23
2023-03-27T14:18:19.845Z,52.15
2023-03-27T14:21:01.071Z,53.34
2023-03-27T14:23:53.250Z,54.36
2023-03-27T14:26:47.023Z,57.65
2023-03-27T14:29:19.899Z,60.20
2023-03-27T14:31:52.782Z,59.99
2023-03-27T14:34:37.613Z,59.13
2023-03-27T14:37:40.213Z,59.22
2023-03-27T14:40:27.912Z,59.25
2023-03-27T14:43:05.536Z,59.07
2023-03-27T14:45:43.994Z,58.77
2023-03-27T14:48:24.640Z,56.18
2023-03-27T14:51:01.810Z,54.85
2023-03-27T14:53:47.155Z,54.63
2023-03-27T14:56:47.601Z,53.66
2023-03-27T14:59:43.239Z,52.69
2023-03-27T15:02:36.720Z,52.04
2023-03-27T15:05:19.435Z,51.44
2023-03-27T15:08:03.373Z,52.20
2023-03-27T15:10:52.606Z,52.55
2023-03-27T15:13:41.265Z,52.73
2023-03-27T15:16:26.401Z,51.80
2023-03-27T15:19:05.891Z,52.33
2023-03-27T15:21:50.763Z,51.93
2023-03-27T15:24:34.440Z,54.17
2023-03-27T15:27:21.819Z,61.48
2023-03-27T15:30:29.730Z,67.56
2023-03-27T15:33:14.138Z,70.31
2023-03-27T15:35:49.362Z,71.97
2023-03-27T15:38:32.135Z,72.55
2023-03-27T15:41:40.677Z,73.34
2023-03-27T15:44:18.922Z,73.65
2023-03-27T15:46:59.805Z,73.02
2023-03-27T15:49:40.404Z,72.65
2023-03-27T15:52:34.609Z,72.68
2023-03-27T15:55:39.325Z,71.43
2023-03-27T15:58:36.812Z,71.70
2023-03-27T16:01:18.085Z,70.64
2023-03-27T16:04:04.522Z,69.88
2023-03-27T16:06:43.814Z,70.25
2023-03-27T16:09:31.531Z,69.45
2023-03-27T16:12:15.373Z,69.54
2023-03-27T16:14:54.206Z,68.75
2023-03-27T16:17:45.567Z,68.69
2023-03-27T16:20:46.876Z,69.30
2023-03-27T16:23:20.584Z,69.37
2023-03-27T16:25:52.669Z,71.42
2023-03-27T16:28:42.719Z,73.35
2023-03-27T16:31:23.588Z,73.30
2023-03-27T16:33:51.891Z,77.01
2023-03-27T16:36:32.539Z,76.32
2023-03-27T16:39:01.020Z,74.99
2023-03-27T16:41:34.121Z,74.16
2023-03-27T16:44:05.149Z,71.76
2023-03-27T16:46:36.046Z,70.89
2023-03-27T16:49:08.868Z,71.21
2023-03-27T16:51:49.844Z,70.45
2023-03-27T16:54:25.300Z,69.83
2023-03-27T16:57:09.395Z,69.86
2023-03-27T16:59:44.999Z,70.43
2023-03-27T17:02:18.180Z,69.89
2023-03-27T17:05:09.611Z,70.46
2023-03-27T17:07:47.472Z,70.45
2023-03-27T17:10:20.813Z,69.95
2023-03-27T17:12:53.478Z,71.43
2023-03-27T17:15:30.635Z,72.07
2023-03-27T17:17:59.251Z,72.10
2023-03-27T17:20:34.992Z,71.05
2023-03-27T17:23:05.318Z,71.65
2023-03-27T17:25:39.471Z,71.74
2023-03-27T17:28:15.293Z,72.21
2023-03-27T17:30:57.048Z,72.44
2023-03-27T17:33:32.086Z,71.61
2023-03-27T17:36:14.618Z,72.92
2023-03-27T17:38:53.669Z,72.93
2023-03-27T17:41:36.480Z,73.15
2023-03-27T17:44:28.925Z,72.90
2023-03-27T17:46:57.481Z,73.15
2023-03-27T17:49:32.946Z,72.60
2023-03-27T17:52:06.328Z,73.00
2023-03-27T17:54:44.914Z,73.07
2023-03-27T17:57:37.951Z,72.79
2023-03-27T18:00:14.191Z,73.31
2023-03-27T18:02:50.124Z,74.11
2023-03-27T18:05:26.095Z,76.26
2023-03-27T18:07:54.472Z,76.15
2023-03-27T18:10:30.248Z,78.33
2023-03-27T18:13:24.191Z,79.30
2023-03-27T18:15:59.866Z,79.84
2023-03-27T18:18:34.889Z,79.64
2023-03-27T18:21:11.152Z,79.46
2023-03-27T18:23:53.925Z,79.61
2023-03-27T18:26:46.107Z,79.06
2023-03-27T18:29:24.207Z,78.73
2023-03-27T18:32:19.216Z,79.33
2023-03-27T18:34:53.267Z,79.12
2023-03-27T18:37:23.852Z,80.06
2023-03-27T18:39:55.898Z,80.97
2023-03-27T18:42:31.425Z,79.81
2023-03-27T18:45:02.093Z,79.21
2023-03-27T18:47:33.352Z,79.52
2023-03-27T18:50:09.905Z,79.23
2023-03-27T18:52:41.865Z,79.14
2023-03-27T18:55:20.482Z,78.12
2023-03-27T18:57:52.551Z,77.14
2023-03-27T19:00:24.920Z,76.78
2023-03-27T19:03:12.165Z,76.05
2023-03-27T19:05:59.868Z,76.56
2023-03-27T19:08:40.738Z,76.38
2023-03-27T19:11:20.696Z,75.65
2023-03-27T19:14:27.345Z,76.31
2023-03-27T19:17:16.163Z,76.08
2023-03-27T19:20:11.132Z,75.56
2023-03-27T19:23:10.563Z,76.11
2023-03-27T19:25:49.467Z,76.02
2023-03-27T19:28:19.781Z,75.70
2023-03-27T19:30:53.597Z,75.32
2023-03-27T19:33:26.473Z,75.12
2023-03-27T19:36:07.363Z,75.41
2023-03-27T19:38:38.747Z,74.61
2023-03-27T19:41:26.448Z,74.70
2023-03-27T19:44:00.941Z,74.72
2023-03-27T19:46:36.842Z,74.63
2023-03-27T19:49:07.436Z,74.43
2023-03-27T19:51:52.294Z,74.29
2023-03-27T19:54:25.618Z,71.74
2023-03-27T19:56:53.597Z,69.92
2023-03-27T19:59:30.516Z,68.11
2023-03-27T20:02:14.967Z,68.66
2023-03-27T20:05:01.188Z,68.39
2023-03-27T20:07:39.656Z,66.82
2023-03-27T20:10:17.905Z,66.74
2023-03-27T20:13:06.220Z,65.75
2023-03-27T20:15:39.776Z,66.40
2023-03-27T20:18:08.939Z,65.68
2023-03-27T20:20:38.344Z,65.44
2023-03-27T20:23:06.964Z,64.99
2023-03-27T20:25:34.345Z,64.66
2023-03-27T20:28:02.422Z,64.55
2023-03-27T20:30:36.935Z,64.89
2023-03-27T20:33:08.067Z,64.59
2023-03-27T20:35:35.948Z,65.94
2023-03-27T20:38:03.578Z,65.84
2023-03-27T20:40:39.552Z,66.15
2023-03-27T20:43:13.880Z,65.89
2023-03-27T20:45:41.493Z,66.73
2023-03-27T20:48:10.470Z,66.43
2023-03-27T20:50:38.739Z,66.58
2023-03-27T20:53:05.829Z,66.54
2023-03-27T20:55:37.250Z,66.33
2023-03-27T20:58:06.543Z,66.34
2023-03-27T21:00:35.249Z,66.13
2023-03-27T21:03:02.561Z,66.45
2023-03-27T21:05:31.789Z,67.14
2023-03-27T21:07:58.663Z,67.19
2023-03-27T21:10:25.870Z,67.31
2023-03-27T21:12:52.767Z,67.39
2023-03-27T21:15:19.916Z,67.40
2023-03-27T21:17:46.736Z,67.88
2023-03-27T21:20:13.668Z,67.61
2023-03-27T21:22:42.123Z,67.58
2023-03-27T21:25:09.510Z,67.56
2023-03-27T21:27:36.898Z,67.70
2023-03-27T21:30:06.344Z,67.98
2023-03-27T21:32:33.111Z,68.12
2023-03-27T21:35:00.177Z,68.62
2023-03-27T21:37:27.119Z,68.84
2023-03-27T21:39:55.404Z,68.81
2023-03-27T21:42:22.500Z,69.00
2023-03-27T21:44:53.154Z,68.84
2023-03-27T21:47:20.860Z,68.85
2023-03-27T21:49:47.769Z,69.30
2023-03-27T21:52:14.700Z,69.08
2023-03-27T21:54:47.394Z,68.92
2023-03-27T21:57:26.790Z,69.72
2023-03-27T21:59:53.762Z,69.67
2023-03-27T22:02:20.490Z,69.32
2023-03-27T22:04:47.296Z,69.42
2023-03-27T22:07:14.156Z,69.74
2023-03-27T22:09:43.963Z,69.92
2023-03-27T22:12:11.132Z,70.10
2023-03-27T22:14:39.532Z,70.38
2023-03-27T22:17:06.451Z,70.57
2023-03-27T22:19:33.242Z,70.37
2023-03-27T22:22:00.250Z,70.14
2023-03-27T22:24:28.005Z,70.64
2023-03-27T22:26:55.584Z,70.50
2023-03-27T22:29:22.676Z,70.25
2023-03-27T22:31:50.946Z,70.17
2023-03-27T22:34:17.808Z,69.88
2023-03-27T22:36:44.657Z,70.55
2023-03-27T22:39:11.724Z,70.03
2023-03-27T22:41:39.119Z,70.12
2023-03-27T22:44:06.117Z,70.53
2023-03-27T22:46:33.794Z,70.56
2023-03-27T22:49:01.996Z,70.64
2023-03-27T22:51:30.227Z,71.01
2023-03-27T22:53:57.869Z,70.84
2023-03-27T22:56:24.931Z,71.34
2023-03-27T22:58:51.724Z,71.70
2023-03-27T23:01:18.727Z,71.66
2023-03-27T23:03:45.656Z,71.69
2023-03-27T23:06:20.102Z,72.22
2023-03-27T23:08:48.837Z,72.07
2023-03-27T23:11:16.822Z,72.88
2023-03-27T23:13:44.280Z,72.33
2023-03-27T23:16:11.762Z,72.64
2023-03-27T23:18:38.969Z,72.21
2023-03-27T23:21:09.225Z,72.68
2023-03-27T23:23:39.722Z,72.95
2023-03-27T23:26:09.364Z,72.66
2023-03-27T23:28:38.925Z,72.98
2023-03-27T23:31:08.090Z,72.47
2023-03-27T23:33:37.103Z,72.34
2023-03-27T23:36:07.937Z,72.64
2023-03-27T23:38:35.003Z,72.50
2023-03-27T23:41:06.314Z,72.38
2023-03-27T23:43:34.591Z,72.41
2023-03-27T23:46:02.408Z,71.94
2023-03-27T23:48:30.739Z,72.00
2023-03-27T23:50:58.474Z,71.85
2023-03-27T23:53:28.089Z,72.06
2023-03-27T23:55:57.770Z,71.84
2023-03-27T23:58:28.887Z,72.11
